sensor_id;sensor_type;location;lat;lon;timestamp;P1;durP1;ratioP1;P2;durP2;ratioP2
13204;SDS011;6667;52.634;9.226;2023-05-14T00:02:18;10.03;;;7.00;;
13204;SDS011;6667;52.634;9.226;2023-05-14T00:04:46;8.70;;;6.17;;
13204;SDS011;6667;52.634;9.226;2023-05-14T00:07:13;7.60;;;5.93;;
13204;SDS011;6667;52.634;9.226;2023-05-14T00:09:40;7.27;;;5.97;;
13204;SDS011;6667;52.634;9.226;2023-05-14T00:12:07;6.83;;;5.83;;
13204;SDS011;6667;52.634;9.226;2023-05-14T00:14:34;7.07;;;4.67;;
13204;SDS011;6667;52.634;9.226;2023-05-14T00:17:01;5.93;;;4.83;;
13204;SDS011;6667;52.634;9.226;2023-05-14T00:19:27;6.53;;;4.93;;
13204;SDS011;6667;52.634;9.226;2023-05-14T00:21:55;5.67;;;5.13;;
13204;SDS011;6667;52.634;9.226;2023-05-14T00:24:22;5.93;;;5.20;;
13204;SDS011;6667;52.634;9.226;2023-05-14T00:26:49;5.60;;;4.70;;
13204;SDS011;6667;52.634;9.226;2023-05-14T00:29:16;5.07;;;4.57;;
13204;SDS011;6667;52.634;9.226;2023-05-14T00:31:42;5.77;;;4.80;;
13204;SDS011;6667;52.634;9.226;2023-05-14T00:34:09;6.07;;;5.30;;
13204;SDS011;6667;52.634;9.226;2023-05-14T00:36:36;6.67;;;5.00;;
13204;SDS011;6667;52.634;9.226;2023-05-14T00:39:04;7.87;;;5.23;;
13204;SDS011;6667;52.634;9.226;2023-05-14T00:41:31;6.97;;;5.20;;
13204;SDS011;6667;52.634;9.226;2023-05-14T00:43:57;7.23;;;5.27;;
13204;SDS011;6667;52.634;9.226;2023-05-14T00:46:24;7.77;;;5.03;;
13204;SDS011;6667;52.634;9.226;2023-05-14T00:48:51;8.57;;;4.93;;
13204;SDS011;6667;52.634;9.226;2023-05-14T00:51:18;5.37;;;4.83;;
13204;SDS011;6667;52.634;9.226;2023-05-14T00:53:45;6.23;;;4.83;;
13204;SDS011;6667;52.634;9.226;2023-05-14T00:56:14;6.10;;;5.27;;
13204;SDS011;6667;52.634;9.226;2023-05-14T00:58:41;6.57;;;4.83;;
13204;SDS011;6667;52.634;9.226;2023-05-14T01:01:08;7.07;;;4.93;;
13204;SDS011;6667;52.634;9.226;2023-05-14T01:03:36;6.20;;;4.83;;
13204;SDS011;6667;52.634;9.226;2023-05-14T01:06:05;7.50;;;5.20;;
13204;SDS011;6667;52.634;9.226;2023-05-14T01:08:39;6.33;;;5.37;;
13204;SDS011;6667;52.634;9.226;2023-05-14T01:11:18;7.60;;;5.47;;
13204;SDS011;6667;52.634;9.226;2023-05-14T01:13:50;9.07;;;5.33;;
13204;SDS011;6667;52.634;9.226;2023-05-14T01:16:22;7.77;;;4.93;;
13204;SDS011;6667;52.634;9.226;2023-05-14T01:18:52;6.73;;;4.90;;
13204;SDS011;6667;52.634;9.226;2023-05-14T01:21:32;5.57;;;5.07;;
13204;SDS011;6667;52.634;9.226;2023-05-14T01:24:01;7.33;;;5.07;;
13204;SDS011;6667;52.634;9.226;2023-05-14T01:26:28;6.10;;;5.03;;
13204;SDS011;6667;52.634;9.226;2023-05-14T01:28:55;8.23;;;5.77;;
13204;SDS011;6667;52.634;9.226;2023-05-14T01:31:26;7.80;;;5.50;;
13204;SDS011;6667;52.634;9.226;2023-05-14T01:33:56;6.10;;;5.27;;
13204;SDS011;6667;52.634;9.226;2023-05-14T01:36:24;9.10;;;5.60;;
13204;SDS011;6667;52.634;9.226;2023-05-14T01:38:53;6.77;;;5.37;;
13204;SDS011;6667;52.634;9.226;2023-05-14T01:41:21;7.07;;;5.60;;
13204;SDS011;6667;52.634;9.226;2023-05-14T01:43:50;6.10;;;5.07;;
13204;SDS011;6667;52.634;9.226;2023-05-14T01:46:17;8.47;;;6.10;;
13204;SDS011;6667;52.634;9.226;2023-05-14T01:48:44;8.40;;;5.30;;
13204;SDS011;6667;52.634;9.226;2023-05-14T01:51:11;6.67;;;5.23;;
13204;SDS011;6667;52.634;9.226;2023-05-14T01:53:40;6.10;;;5.40;;
13204;SDS011;6667;52.634;9.226;2023-05-14T01:56:07;6.83;;;5.53;;
13204;SDS011;6667;52.634;9.226;2023-05-14T01:58:33;7.50;;;5.23;;
13204;SDS011;6667;52.634;9.226;2023-05-14T02:01:00;6.17;;;5.10;;
13204;SDS011;6667;52.634;9.226;2023-05-14T02:03:27;8.80;;;5.90;;
13204;SDS011;6667;52.634;9.226;2023-05-14T02:05:54;5.90;;;4.93;;
13204;SDS011;6667;52.634;9.226;2023-05-14T02:08:20;9.50;;;6.00;;
13204;SDS011;6667;52.634;9.226;2023-05-14T02:10:48;7.57;;;5.33;;
13204;SDS011;6667;52.634;9.226;2023-05-14T02:13:15;7.53;;;5.40;;
13204;SDS011;6667;52.634;9.226;2023-05-14T02:15:42;6.83;;;5.53;;
13204;SDS011;6667;52.634;9.226;2023-05-14T02:18:09;8.43;;;5.80;;
13204;SDS011;6667;52.634;9.226;2023-05-14T02:20:36;6.20;;;5.43;;
13204;SDS011;6667;52.634;9.226;2023-05-14T02:23:03;9.83;;;6.50;;
13204;SDS011;6667;52.634;9.226;2023-05-14T02:25:29;7.50;;;5.57;;
13204;SDS011;6667;52.634;9.226;2023-05-14T02:27:58;6.13;;;5.53;;
13204;SDS011;6667;52.634;9.226;2023-05-14T02:30:24;6.67;;;5.97;;
13204;SDS011;6667;52.634;9.226;2023-05-14T02:32:51;5.80;;;5.00;;
13204;SDS011;6667;52.634;9.226;2023-05-14T02:35:18;6.53;;;5.83;;
13204;SDS011;6667;52.634;9.226;2023-05-14T02:37:44;6.27;;;5.50;;
13204;SDS011;6667;52.634;9.226;2023-05-14T02:40:11;6.73;;;5.70;;
13204;SDS011;6667;52.634;9.226;2023-05-14T02:42:38;7.87;;;5.33;;
13204;SDS011;6667;52.634;9.226;2023-05-14T02:45:07;6.07;;;5.47;;
13204;SDS011;6667;52.634;9.226;2023-05-14T02:47:34;6.00;;;5.40;;
13204;SDS011;6667;52.634;9.226;2023-05-14T02:50:00;6.83;;;5.10;;
13204;SDS011;6667;52.634;9.226;2023-05-14T02:52:28;6.53;;;5.50;;
13204;SDS011;6667;52.634;9.226;2023-05-14T02:54:55;7.37;;;5.60;;
13204;SDS011;6667;52.634;9.226;2023-05-14T02:57:22;6.37;;;5.57;;
13204;SDS011;6667;52.634;9.226;2023-05-14T02:59:49;7.00;;;5.63;;
13204;SDS011;6667;52.634;9.226;2023-05-14T03:02:17;8.97;;;5.27;;
13204;SDS011;6667;52.634;9.226;2023-05-14T03:04:44;6.60;;;5.90;;
13204;SDS011;6667;52.634;9.226;2023-05-14T03:07:10;6.27;;;5.67;;
13204;SDS011;6667;52.634;9.226;2023-05-14T03:09:37;8.40;;;6.27;;
13204;SDS011;6667;52.634;9.226;2023-05-14T03:12:04;8.47;;;5.87;;
13204;SDS011;6667;52.634;9.226;2023-05-14T03:14:32;7.80;;;5.87;;
13204;SDS011;6667;52.634;9.226;2023-05-14T03:16:59;8.17;;;5.67;;
13204;SDS011;6667;52.634;9.226;2023-05-14T03:19:27;6.33;;;5.70;;
13204;SDS011;6667;52.634;9.226;2023-05-14T03:21:54;8.70;;;6.43;;
13204;SDS011;6667;52.634;9.226;2023-05-14T03:24:20;6.30;;;5.70;;
13204;SDS011;6667;52.634;9.226;2023-05-14T03:29:16;7.00;;;5.57;;
13204;SDS011;6667;52.634;9.226;2023-05-14T03:31:42;8.50;;;6.13;;
13204;SDS011;6667;52.634;9.226;2023-05-14T03:34:09;6.80;;;5.53;;
13204;SDS011;6667;52.634;9.226;2023-05-14T03:36:37;6.00;;;5.40;;
13204;SDS011;6667;52.634;9.226;2023-05-14T03:39:04;6.33;;;5.40;;
13204;SDS011;6667;52.634;9.226;2023-05-14T03:41:31;6.47;;;5.50;;
13204;SDS011;6667;52.634;9.226;2023-05-14T03:43:58;7.83;;;5.80;;
13204;SDS011;6667;52.634;9.226;2023-05-14T03:46:25;5.93;;;5.30;;
13204;SDS011;6667;52.634;9.226;2023-05-14T03:48:51;8.17;;;5.50;;
13204;SDS011;6667;52.634;9.226;2023-05-14T03:51:18;5.87;;;5.17;;
13204;SDS011;6667;52.634;9.226;2023-05-14T03:53:46;7.63;;;5.67;;
13204;SDS011;6667;52.634;9.226;2023-05-14T03:56:13;6.13;;;5.53;;
13204;SDS011;6667;52.634;9.226;2023-05-14T03:58:40;6.83;;;5.77;;
13204;SDS011;6667;52.634;9.226;2023-05-14T04:01:06;6.30;;;5.70;;
13204;SDS011;6667;52.634;9.226;2023-05-14T04:03:33;7.80;;;6.03;;
13204;SDS011;6667;52.634;9.226;2023-05-14T04:06:00;8.03;;;5.40;;
13204;SDS011;6667;52.634;9.226;2023-05-14T04:08:27;7.17;;;5.30;;
13204;SDS011;6667;52.634;9.226;2023-05-14T04:10:55;6.13;;;5.33;;
13204;SDS011;6667;52.634;9.226;2023-05-14T04:13:21;6.20;;;5.60;;
13204;SDS011;6667;52.634;9.226;2023-05-14T04:15:48;6.43;;;5.80;;
13204;SDS011;6667;52.634;9.226;2023-05-14T04:18:15;7.17;;;5.33;;
13204;SDS011;6667;52.634;9.226;2023-05-14T04:20:42;6.23;;;5.53;;
13204;SDS011;6667;52.634;9.226;2023-05-14T04:23:09;6.03;;;5.07;;
13204;SDS011;6667;52.634;9.226;2023-05-14T04:25:35;7.23;;;5.60;;
13204;SDS011;6667;52.634;9.226;2023-05-14T04:28:04;6.63;;;5.50;;
13204;SDS011;6667;52.634;9.226;2023-05-14T04:30:30;8.33;;;5.93;;
13204;SDS011;6667;52.634;9.226;2023-05-14T04:32:57;6.87;;;5.53;;
13204;SDS011;6667;52.634;9.226;2023-05-14T04:35:24;5.43;;;4.93;;
13204;SDS011;6667;52.634;9.226;2023-05-14T04:37:51;6.40;;;5.40;;
13204;SDS011;6667;52.634;9.226;2023-05-14T04:40:18;7.37;;;5.07;;
13204;SDS011;6667;52.634;9.226;2023-05-14T04:42:46;7.50;;;5.77;;
13204;SDS011;6667;52.634;9.226;2023-05-14T04:45:14;6.07;;;5.47;;
13204;SDS011;6667;52.634;9.226;2023-05-14T04:47:41;6.17;;;5.47;;
13204;SDS011;6667;52.634;9.226;2023-05-14T04:50:09;6.03;;;5.43;;
13204;SDS011;6667;52.634;9.226;2023-05-14T04:52:36;5.80;;;5.07;;
13204;SDS011;6667;52.634;9.226;2023-05-14T04:55:03;7.83;;;5.37;;
13204;SDS011;6667;52.634;9.226;2023-05-14T04:57:30;5.83;;;4.80;;
13204;SDS011;6667;52.634;9.226;2023-05-14T04:59:57;6.13;;;5.53;;
13204;SDS011;6667;52.634;9.226;2023-05-14T05:02:25;5.90;;;5.40;;
13204;SDS011;6667;52.634;9.226;2023-05-14T05:04:52;5.97;;;5.40;;
13204;SDS011;6667;52.634;9.226;2023-05-14T05:07:18;7.97;;;5.40;;
13204;SDS011;6667;52.634;9.226;2023-05-14T05:09:45;6.57;;;5.00;;
13204;SDS011;6667;52.634;9.226;2023-05-14T05:12:12;5.67;;;5.17;;
13204;SDS011;6667;52.634;9.226;2023-05-14T05:14:39;7.83;;;5.10;;
13204;SDS011;6667;52.634;9.226;2023-05-14T05:17:05;6.97;;;5.33;;
13204;SDS011;6667;52.634;9.226;2023-05-14T05:19:33;5.67;;;5.07;;
13204;SDS011;6667;52.634;9.226;2023-05-14T05:22:00;8.50;;;5.40;;
13204;SDS011;6667;52.634;9.226;2023-05-14T05:24:27;6.07;;;5.47;;
13204;SDS011;6667;52.634;9.226;2023-05-14T05:26:53;5.80;;;5.17;;
13204;SDS011;6667;52.634;9.226;2023-05-14T05:29:20;5.97;;;4.70;;
13204;SDS011;6667;52.634;9.226;2023-05-14T05:31:47;7.40;;;5.20;;
13204;SDS011;6667;52.634;9.226;2023-05-14T05:34:14;6.60;;;5.30;;
13204;SDS011;6667;52.634;9.226;2023-05-14T05:36:42;7.53;;;5.03;;
13204;SDS011;6667;52.634;9.226;2023-05-14T05:39:09;5.33;;;4.83;;
13204;SDS011;6667;52.634;9.226;2023-05-14T05:41:36;7.93;;;5.50;;
13204;SDS011;6667;52.634;9.226;2023-05-14T05:44:03;5.83;;;5.07;;
13204;SDS011;6667;52.634;9.226;2023-05-14T05:46:29;7.93;;;4.90;;
13204;SDS011;6667;52.634;9.226;2023-05-14T05:48:56;5.80;;;4.87;;
13204;SDS011;6667;52.634;9.226;2023-05-14T05:51:23;6.00;;;5.40;;
13204;SDS011;6667;52.634;9.226;2023-05-14T05:53:51;6.30;;;4.93;;
13204;SDS011;6667;52.634;9.226;2023-05-14T05:56:18;6.03;;;5.43;;
13204;SDS011;6667;52.634;9.226;2023-05-14T05:58:45;8.00;;;5.07;;
13204;SDS011;6667;52.634;9.226;2023-05-14T06:01:11;5.73;;;5.13;;
13204;SDS011;6667;52.634;9.226;2023-05-14T06:03:38;5.90;;;4.70;;
13204;SDS011;6667;52.634;9.226;2023-05-14T06:06:05;5.80;;;4.40;;
13204;SDS011;6667;52.634;9.226;2023-05-14T06:08:32;6.37;;;4.30;;
13204;SDS011;6667;52.634;9.226;2023-05-14T06:11:00;6.20;;;4.37;;
13204;SDS011;6667;52.634;9.226;2023-05-14T06:13:27;4.60;;;4.20;;
13204;SDS011;6667;52.634;9.226;2023-05-14T06:15:53;5.00;;;4.10;;
13204;SDS011;6667;52.634;9.226;2023-05-14T06:18:20;4.50;;;4.10;;
13204;SDS011;6667;52.634;9.226;2023-05-14T06:20:47;5.37;;;4.17;;
13204;SDS011;6667;52.634;9.226;2023-05-14T06:23:13;5.30;;;4.23;;
13204;SDS011;6667;52.634;9.226;2023-05-14T06:25:40;4.27;;;3.87;;
13204;SDS011;6667;52.634;9.226;2023-05-14T06:28:08;4.43;;;3.70;;
13204;SDS011;6667;52.634;9.226;2023-05-14T06:30:35;5.27;;;4.03;;
13204;SDS011;6667;52.634;9.226;2023-05-14T06:33:02;4.67;;;3.50;;
13204;SDS011;6667;52.634;9.226;2023-05-14T06:35:28;4.00;;;3.60;;
13204;SDS011;6667;52.634;9.226;2023-05-14T06:37:55;4.17;;;3.73;;
13204;SDS011;6667;52.634;9.226;2023-05-14T06:40:22;4.30;;;3.97;;
13204;SDS011;6667;52.634;9.226;2023-05-14T06:42:48;6.60;;;4.00;;
13204;SDS011;6667;52.634;9.226;2023-05-14T06:45:16;4.20;;;3.67;;
13204;SDS011;6667;52.634;9.226;2023-05-14T06:47:43;4.87;;;3.60;;
13204;SDS011;6667;52.634;9.226;2023-05-14T06:50:10;5.77;;;3.30;;
13204;SDS011;6667;52.634;9.226;2023-05-14T06:52:37;4.37;;;3.60;;
13204;SDS011;6667;52.634;9.226;2023-05-14T06:55:04;3.83;;;3.30;;
13204;SDS011;6667;52.634;9.226;2023-05-14T06:57:31;5.57;;;3.37;;
13204;SDS011;6667;52.634;9.226;2023-05-14T06:59:59;3.10;;;2.80;;
13204;SDS011;6667;52.634;9.226;2023-05-14T07:02:27;4.23;;;3.70;;
13204;SDS011;6667;52.634;9.226;2023-05-14T07:04:53;3.00;;;2.80;;
13204;SDS011;6667;52.634;9.226;2023-05-14T07:07:20;4.18;;;3.50;;
13204;SDS011;6667;52.634;9.226;2023-05-14T07:09:47;3.40;;;3.10;;
13204;SDS011;6667;52.634;9.226;2023-05-14T07:12:13;3.90;;;3.17;;
13204;SDS011;6667;52.634;9.226;2023-05-14T07:14:40;5.05;;;3.58;;
13204;SDS011;6667;52.634;9.226;2023-05-14T07:17:07;4.90;;;3.10;;
13204;SDS011;6667;52.634;9.226;2023-05-14T07:19:35;5.20;;;3.30;;
13204;SDS011;6667;52.634;9.226;2023-05-14T07:22:02;4.63;;;3.22;;
13204;SDS011;6667;52.634;9.226;2023-05-14T07:24:29;3.65;;;3.03;;
13204;SDS011;6667;52.634;9.226;2023-05-14T07:26:55;3.45;;;2.63;;
13204;SDS011;6667;52.634;9.226;2023-05-14T07:29:22;3.55;;;3.25;;
13204;SDS011;6667;52.634;9.226;2023-05-14T07:31:50;5.78;;;3.30;;
13204;SDS011;6667;52.634;9.226;2023-05-14T07:34:16;4.05;;;3.17;;
13204;SDS011;6667;52.634;9.226;2023-05-14T07:36:45;2.92;;;2.63;;
13204;SDS011;6667;52.634;9.226;2023-05-14T07:39:12;3.70;;;3.13;;
13204;SDS011;6667;52.634;9.226;2023-05-14T07:41:38;3.42;;;3.13;;
13204;SDS011;6667;52.634;9.226;2023-05-14T07:44:05;3.60;;;3.10;;
13204;SDS011;6667;52.634;9.226;2023-05-14T07:46:32;4.28;;;2.60;;
13204;SDS011;6667;52.634;9.226;2023-05-14T07:48:59;6.07;;;2.92;;
13204;SDS011;6667;52.634;9.226;2023-05-14T07:51:25;3.50;;;3.20;;
13204;SDS011;6667;52.634;9.226;2023-05-14T07:53:54;3.40;;;2.28;;
13204;SDS011;6667;52.634;9.226;2023-05-14T07:56:21;3.45;;;2.78;;
13204;SDS011;6667;52.634;9.226;2023-05-14T07:58:49;3.25;;;2.80;;
13204;SDS011;6667;52.634;9.226;2023-05-14T08:01:16;4.28;;;2.90;;
13204;SDS011;6667;52.634;9.226;2023-05-14T08:03:42;3.25;;;2.85;;
13204;SDS011;6667;52.634;9.226;2023-05-14T08:06:09;2.67;;;2.47;;
13204;SDS011;6667;52.634;9.226;2023-05-14T08:08:36;4.05;;;2.55;;
13204;SDS011;6667;52.634;9.226;2023-05-14T08:11:04;4.35;;;2.28;;
13204;SDS011;6667;52.634;9.226;2023-05-14T08:13:31;4.75;;;2.40;;
13204;SDS011;6667;52.634;9.226;2023-05-14T08:15:58;3.45;;;2.70;;
13204;SDS011;6667;52.634;9.226;2023-05-14T08:18:25;2.63;;;2.42;;
13204;SDS011;6667;52.634;9.226;2023-05-14T08:20:51;3.40;;;2.67;;
13204;SDS011;6667;52.634;9.226;2023-05-14T08:23:18;2.60;;;2.40;;
13204;SDS011;6667;52.634;9.226;2023-05-14T08:25:46;3.38;;;2.40;;
13204;SDS011;6667;52.634;9.226;2023-05-14T08:28:14;3.15;;;2.75;;
13204;SDS011;6667;52.634;9.226;2023-05-14T08:30:41;3.55;;;2.80;;
13204;SDS011;6667;52.634;9.226;2023-05-14T08:33:07;2.70;;;2.50;;
13204;SDS011;6667;52.634;9.226;2023-05-14T08:35:34;3.20;;;2.35;;
13204;SDS011;6667;52.634;9.226;2023-05-14T08:38:01;6.45;;;2.20;;
13204;SDS011;6667;52.634;9.226;2023-05-14T08:40:28;2.20;;;2.00;;
13204;SDS011;6667;52.634;9.226;2023-05-14T08:42:55;3.03;;;2.35;;
13204;SDS011;6667;52.634;9.226;2023-05-14T08:45:25;2.33;;;2.13;;
13204;SDS011;6667;52.634;9.226;2023-05-14T08:47:55;2.15;;;1.88;;
13204;SDS011;6667;52.634;9.226;2023-05-14T08:50:24;3.80;;;2.45;;
13204;SDS011;6667;52.634;9.226;2023-05-14T08:52:53;3.05;;;2.42;;
13204;SDS011;6667;52.634;9.226;2023-05-14T08:55:20;5.53;;;2.35;;
13204;SDS011;6667;52.634;9.226;2023-05-14T08:57:47;2.65;;;2.30;;
13204;SDS011;6667;52.634;9.226;2023-05-14T09:00:14;4.47;;;2.55;;
13204;SDS011;6667;52.634;9.226;2023-05-14T09:02:44;3.17;;;2.33;;
13204;SDS011;6667;52.634;9.226;2023-05-14T09:05:12;4.45;;;2.50;;
13204;SDS011;6667;52.634;9.226;2023-05-14T09:07:42;2.42;;;2.22;;
13204;SDS011;6667;52.634;9.226;2023-05-14T09:10:09;2.72;;;2.45;;
13204;SDS011;6667;52.634;9.226;2023-05-14T09:12:36;3.22;;;2.40;;
13204;SDS011;6667;52.634;9.226;2023-05-14T09:15:03;2.30;;;2.10;;
13204;SDS011;6667;52.634;9.226;2023-05-14T09:17:31;2.85;;;2.50;;
13204;SDS011;6667;52.634;9.226;2023-05-14T09:20:00;2.75;;;2.55;;
13204;SDS011;6667;52.634;9.226;2023-05-14T09:22:28;2.20;;;2.00;;
13204;SDS011;6667;52.634;9.226;2023-05-14T09:25:06;3.58;;;2.47;;
13204;SDS011;6667;52.634;9.226;2023-05-14T09:27:36;2.40;;;2.13;;
13204;SDS011;6667;52.634;9.226;2023-05-14T09:30:04;4.38;;;2.35;;
13204;SDS011;6667;52.634;9.226;2023-05-14T09:32:36;2.47;;;2.25;;
13204;SDS011;6667;52.634;9.226;2023-05-14T09:35:10;3.40;;;2.45;;
13204;SDS011;6667;52.634;9.226;2023-05-14T09:37:40;2.42;;;2.22;;
13204;SDS011;6667;52.634;9.226;2023-05-14T09:40:08;2.50;;;2.17;;
13204;SDS011;6667;52.634;9.226;2023-05-14T09:42:49;2.47;;;2.28;;
13204;SDS011;6667;52.634;9.226;2023-05-14T09:59:54;2.20;;;2.10;;
13204;SDS011;6667;52.634;9.226;2023-05-14T10:08:43;2.72;;;2.25;;
13204;SDS011;6667;52.634;9.226;2023-05-14T10:14:56;2.60;;;2.40;;
13204;SDS011;6667;52.634;9.226;2023-05-14T10:21:14;2.33;;;2.10;;
13204;SDS011;6667;52.634;9.226;2023-05-14T10:23:47;3.72;;;2.40;;
13204;SDS011;6667;52.634;9.226;2023-05-14T10:26:20;3.45;;;2.28;;
13204;SDS011;6667;52.634;9.226;2023-05-14T10:32:24;3.13;;;2.42;;
13204;SDS011;6667;52.634;9.226;2023-05-14T10:35:05;2.47;;;2.08;;
13204;SDS011;6667;52.634;9.226;2023-05-14T10:40:54;3.17;;;2.28;;
13204;SDS011;6667;52.634;9.226;2023-05-14T10:43:26;2.42;;;2.10;;
13204;SDS011;6667;52.634;9.226;2023-05-14T10:45:58;2.40;;;2.20;;
13204;SDS011;6667;52.634;9.226;2023-05-14T10:48:28;3.47;;;2.28;;
13204;SDS011;6667;52.634;9.226;2023-05-14T10:50:57;3.75;;;2.42;;
13204;SDS011;6667;52.634;9.226;2023-05-14T11:04:01;2.35;;;2.15;;
13204;SDS011;6667;52.634;9.226;2023-05-14T11:06:29;2.30;;;2.10;;
13204;SDS011;6667;52.634;9.226;2023-05-14T11:08:57;3.00;;;2.08;;
13204;SDS011;6667;52.634;9.226;2023-05-14T11:11:26;3.33;;;2.22;;
13204;SDS011;6667;52.634;9.226;2023-05-14T11:13:54;2.40;;;1.90;;
13204;SDS011;6667;52.634;9.226;2023-05-14T11:16:22;3.15;;;2.22;;
13204;SDS011;6667;52.634;9.226;2023-05-14T11:18:57;2.00;;;1.75;;
13204;SDS011;6667;52.634;9.226;2023-05-14T11:21:28;2.50;;;2.28;;
13204;SDS011;6667;52.634;9.226;2023-05-14T11:23:56;3.70;;;1.90;;
13204;SDS011;6667;52.634;9.226;2023-05-14T11:26:24;3.95;;;2.10;;
13204;SDS011;6667;52.634;9.226;2023-05-14T11:28:51;3.20;;;2.10;;
13204;SDS011;6667;52.634;9.226;2023-05-14T11:31:18;3.47;;;2.17;;
13204;SDS011;6667;52.634;9.226;2023-05-14T11:33:44;3.08;;;2.00;;
13204;SDS011;6667;52.634;9.226;2023-05-14T11:36:12;2.88;;;2.15;;
13204;SDS011;6667;52.634;9.226;2023-05-14T11:38:44;2.75;;;2.17;;
13204;SDS011;6667;52.634;9.226;2023-05-14T11:41:13;2.42;;;2.03;;
13204;SDS011;6667;52.634;9.226;2023-05-14T11:43:40;2.40;;;2.20;;
13204;SDS011;6667;52.634;9.226;2023-05-14T11:46:07;3.28;;;2.17;;
13204;SDS011;6667;52.634;9.226;2023-05-14T11:48:41;4.50;;;1.90;;
13204;SDS011;6667;52.634;9.226;2023-05-14T11:51:08;2.50;;;2.30;;
13204;SDS011;6667;52.634;9.226;2023-05-14T11:53:36;3.00;;;2.15;;
13204;SDS011;6667;52.634;9.226;2023-05-14T11:56:03;4.20;;;2.40;;
13204;SDS011;6667;52.634;9.226;2023-05-14T11:58:30;3.15;;;2.50;;
13204;SDS011;6667;52.634;9.226;2023-05-14T12:00:58;3.20;;;2.33;;
13204;SDS011;6667;52.634;9.226;2023-05-14T12:03:26;2.40;;;2.20;;
13204;SDS011;6667;52.634;9.226;2023-05-14T12:05:55;4.00;;;2.05;;
13204;SDS011;6667;52.634;9.226;2023-05-14T12:08:22;2.70;;;2.50;;
13204;SDS011;6667;52.634;9.226;2023-05-14T12:10:53;3.40;;;2.00;;
13204;SDS011;6667;52.634;9.226;2023-05-14T12:13:21;2.83;;;2.10;;
13204;SDS011;6667;52.634;9.226;2023-05-14T12:15:52;4.05;;;2.05;;
13204;SDS011;6667;52.634;9.226;2023-05-14T12:18:20;3.10;;;2.22;;
13204;SDS011;6667;52.634;9.226;2023-05-14T12:20:47;2.60;;;2.33;;
13204;SDS011;6667;52.634;9.226;2023-05-14T12:23:15;2.10;;;1.85;;
13204;SDS011;6667;52.634;9.226;2023-05-14T12:25:48;2.05;;;1.83;;
13204;SDS011;6667;52.634;9.226;2023-05-14T12:28:16;2.67;;;2.10;;
13204;SDS011;6667;52.634;9.226;2023-05-14T12:30:44;2.17;;;2.00;;
13204;SDS011;6667;52.634;9.226;2023-05-14T12:33:11;3.17;;;2.30;;
13204;SDS011;6667;52.634;9.226;2023-05-14T12:35:38;2.55;;;2.20;;
13204;SDS011;6667;52.634;9.226;2023-05-14T12:38:05;2.58;;;2.38;;
13204;SDS011;6667;52.634;9.226;2023-05-14T12:40:31;4.13;;;1.83;;
13204;SDS011;6667;52.634;9.226;2023-05-14T12:42:58;2.35;;;2.15;;
13204;SDS011;6667;52.634;9.226;2023-05-14T12:45:26;2.00;;;1.90;;
13204;SDS011;6667;52.634;9.226;2023-05-14T12:47:53;4.47;;;2.22;;
13204;SDS011;6667;52.634;9.226;2023-05-14T12:50:20;2.20;;;2.00;;
13204;SDS011;6667;52.634;9.226;2023-05-14T12:52:47;4.82;;;2.40;;
13204;SDS011;6667;52.634;9.226;2023-05-14T12:55:13;2.33;;;2.13;;
13204;SDS011;6667;52.634;9.226;2023-05-14T12:57:40;2.40;;;1.92;;
13204;SDS011;6667;52.634;9.226;2023-05-14T13:00:08;2.45;;;2.20;;
13204;SDS011;6667;52.634;9.226;2023-05-14T13:02:37;2.47;;;2.13;;
13204;SDS011;6667;52.634;9.226;2023-05-14T13:05:04;3.20;;;2.10;;
13204;SDS011;6667;52.634;9.226;2023-05-14T13:07:31;5.80;;;2.20;;
13204;SDS011;6667;52.634;9.226;2023-05-14T13:09:58;2.97;;;2.08;;
13204;SDS011;6667;52.634;9.226;2023-05-14T13:12:24;2.13;;;2.00;;
13204;SDS011;6667;52.634;9.226;2023-05-14T13:14:51;3.33;;;2.25;;
13204;SDS011;6667;52.634;9.226;2023-05-14T13:17:18;3.20;;;2.55;;
13204;SDS011;6667;52.634;9.226;2023-05-14T13:19:46;2.00;;;1.73;;
13204;SDS011;6667;52.634;9.226;2023-05-14T13:22:13;2.60;;;2.22;;
13204;SDS011;6667;52.634;9.226;2023-05-14T13:24:41;3.20;;;2.13;;
13204;SDS011;6667;52.634;9.226;2023-05-14T13:27:08;2.28;;;2.00;;
13204;SDS011;6667;52.634;9.226;2023-05-14T13:29:35;3.63;;;2.40;;
13204;SDS011;6667;52.634;9.226;2023-05-14T13:32:02;2.17;;;1.88;;
13204;SDS011;6667;52.634;9.226;2023-05-14T13:34:29;4.25;;;1.98;;
13204;SDS011;6667;52.634;9.226;2023-05-14T13:36:57;3.10;;;2.53;;
13204;SDS011;6667;52.634;9.226;2023-05-14T13:39:23;2.53;;;2.33;;
13204;SDS011;6667;52.634;9.226;2023-05-14T13:41:51;3.63;;;1.92;;
13204;SDS011;6667;52.634;9.226;2023-05-14T13:44:19;2.83;;;2.00;;
13204;SDS011;6667;52.634;9.226;2023-05-14T13:46:46;2.40;;;2.00;;
13204;SDS011;6667;52.634;9.226;2023-05-14T13:49:13;2.28;;;2.08;;
13204;SDS011;6667;52.634;9.226;2023-05-14T13:51:40;4.25;;;2.28;;
13204;SDS011;6667;52.634;9.226;2023-05-14T13:54:08;2.38;;;2.13;;
13204;SDS011;6667;52.634;9.226;2023-05-14T13:56:35;2.45;;;1.85;;
13204;SDS011;6667;52.634;9.226;2023-05-14T13:59:01;2.95;;;2.53;;
13204;SDS011;6667;52.634;9.226;2023-05-14T14:01:28;2.35;;;2.15;;
13204;SDS011;6667;52.634;9.226;2023-05-14T14:03:55;2.80;;;2.40;;
13204;SDS011;6667;52.634;9.226;2023-05-14T14:06:22;2.45;;;2.25;;
13204;SDS011;6667;52.634;9.226;2023-05-14T14:08:51;3.17;;;1.90;;
13204;SDS011;6667;52.634;9.226;2023-05-14T14:11:19;2.50;;;2.20;;
13204;SDS011;6667;52.634;9.226;2023-05-14T14:13:46;2.85;;;2.00;;
13204;SDS011;6667;52.634;9.226;2023-05-14T14:16:12;2.42;;;2.22;;
13204;SDS011;6667;52.634;9.226;2023-05-14T14:18:39;4.80;;;2.05;;
13204;SDS011;6667;52.634;9.226;2023-05-14T14:21:07;2.40;;;2.20;;
13204;SDS011;6667;52.634;9.226;2023-05-14T14:23:34;3.05;;;2.25;;
13204;SDS011;6667;52.634;9.226;2023-05-14T14:26:00;2.63;;;2.22;;
13204;SDS011;6667;52.634;9.226;2023-05-14T14:28:29;5.15;;;2.20;;
13204;SDS011;6667;52.634;9.226;2023-05-14T14:30:56;2.85;;;2.13;;
13204;SDS011;6667;52.634;9.226;2023-05-14T14:33:22;2.47;;;2.28;;
13204;SDS011;6667;52.634;9.226;2023-05-14T14:35:49;2.65;;;2.40;;
13204;SDS011;6667;52.634;9.226;2023-05-14T14:38:16;2.45;;;2.20;;
13204;SDS011;6667;52.634;9.226;2023-05-14T14:40:43;2.80;;;2.38;;
13204;SDS011;6667;52.634;9.226;2023-05-14T14:43:11;3.10;;;2.67;;
13204;SDS011;6667;52.634;9.226;2023-05-14T14:45:39;2.50;;;2.28;;
13204;SDS011;6667;52.634;9.226;2023-05-14T14:50:49;4.05;;;2.47;;
13204;SDS011;6667;52.634;9.226;2023-05-14T14:53:17;2.53;;;2.30;;
13204;SDS011;6667;52.634;9.226;2023-05-14T14:55:43;4.15;;;2.38;;
13204;SDS011;6667;52.634;9.226;2023-05-14T14:58:10;2.78;;;2.58;;
13204;SDS011;6667;52.634;9.226;2023-05-14T15:00:38;5.47;;;2.60;;
13204;SDS011;6667;52.634;9.226;2023-05-14T15:03:05;2.83;;;2.42;;
13204;SDS011;6667;52.634;9.226;2023-05-14T15:05:33;4.97;;;2.35;;
13204;SDS011;6667;52.634;9.226;2023-05-14T15:07:59;2.97;;;2.67;;
13204;SDS011;6667;52.634;9.226;2023-05-14T15:10:26;2.95;;;2.50;;
13204;SDS011;6667;52.634;9.226;2023-05-14T15:12:55;3.70;;;2.50;;
13204;SDS011;6667;52.634;9.226;2023-05-14T15:15:22;6.22;;;2.63;;
13204;SDS011;6667;52.634;9.226;2023-05-14T15:17:50;3.30;;;2.70;;
13204;SDS011;6667;52.634;9.226;2023-05-14T15:20:17;3.42;;;2.67;;
13204;SDS011;6667;52.634;9.226;2023-05-14T15:22:44;2.47;;;2.22;;
13204;SDS011;6667;52.634;9.226;2023-05-14T15:25:11;2.90;;;2.70;;
13204;SDS011;6667;52.634;9.226;2023-05-14T15:27:37;2.92;;;2.53;;
13204;SDS011;6667;52.634;9.226;2023-05-14T15:30:05;3.50;;;2.58;;
13204;SDS011;6667;52.634;9.226;2023-05-14T15:32:32;3.25;;;2.75;;
13204;SDS011;6667;52.634;9.226;2023-05-14T15:35:00;6.53;;;2.90;;
13204;SDS011;6667;52.634;9.226;2023-05-14T15:37:27;4.75;;;2.70;;
13204;SDS011;6667;52.634;9.226;2023-05-14T15:40:02;2.80;;;2.60;;
13204;SDS011;6667;52.634;9.226;2023-05-14T15:42:30;2.90;;;2.40;;
13204;SDS011;6667;52.634;9.226;2023-05-14T15:44:57;4.03;;;2.70;;
13204;SDS011;6667;52.634;9.226;2023-05-14T15:47:23;4.68;;;2.72;;
13204;SDS011;6667;52.634;9.226;2023-05-14T15:49:50;2.50;;;2.30;;
13204;SDS011;6667;52.634;9.226;2023-05-14T15:52:18;4.20;;;2.47;;
13204;SDS011;6667;52.634;9.226;2023-05-14T15:54:45;3.67;;;2.63;;